EST,Max TemperatureF,Mean TemperatureF,Min TemperatureF,Max Dew PointF,MeanDew PointF,Min DewpointF,Max Humidity, Mean Humidity, Min Humidity, Max Sea Level PressureIn, Mean Sea Level PressureIn, Min Sea Level PressureIn, Max VisibilityMiles, Mean VisibilityMiles, Min VisibilityMiles, Max Wind SpeedMPH, Mean Wind SpeedMPH, Max Gust SpeedMPH,PrecipitationIn, CloudCover, Events, WindDirDegrees
2013-1-1,59,50,42,55,50,43,100,91,77,30.17,30.07,29.95,10,6,4,4,0,,0.00,7,Rain,237
2013-1-2,55,50,46,54,50,45,100,94,77,30.19,30.02,29.90,10,6,2,9,3,,0.01,8,Rain,25
2013-1-3,46,40,33,45,42,34,100,98,87,30.28,30.19,30.12,10,5,0,8,4,,0.08,7,Rain-Snow,43
2013-1-4,51,40,28,41,33,28,100,81,44,30.37,30.30,30.24,10,5,0,6,1,,0.00,1,Snow,299
2013-1-5,51,38,26,39,32,27,100,82,40,30.42,30.34,30.30,7,6,5,6,0,,0.00,0,,40
2013-1-6,53,45,37,46,43,37,100,86,62,30.30,30.18,30.10,10,7,5,6,0,,0.01,7,Rain,189
2013-1-7,55,44,32,45,36,32,100,78,41,30.41,30.34,30.18,10,6,0,10,3,,0.00,1,Snow,35
2013-1-8,64,53,42,54,43,34,100,78,55,30.43,30.37,30.33,10,6,2,8,4,,0.00,4,,25
2013-1-9,73,58,42,59,52,43,100,87,53,30.41,30.38,30.35,10,6,3,7,1,,0.00,3,,18
2013-1-10,71,58,46,55,50,43,100,74,53,30.48,30.43,30.39,10,6,1,10,3,,0.00,3,,65
2013-1-11,77,64,51,64,57,45,100,88,57,30.39,30.26,30.18,7,6,2,9,3,16,0.11,5,Rain,145
2013-1-12,80,68,55,66,61,55,100,87,51,30.21,30.16,30.12,7,5,0,8,3,,0.00,2,Fog,229
2013-1-13,77,64,51,63,57,52,100,89,54,30.19,30.14,30.09,7,6,0,10,1,,0.00,0,Fog,200
2013-1-14,78,64,51,66,59,52,100,84,54,30.20,30.16,30.12,10,6,0,12,4,17,0.00,2,Fog,198
2013-1-15,77,66,55,64,61,55,100,87,54,30.18,30.12,30.04,7,5,0,7,3,,0.00,2,Fog,185
2013-1-16,80,68,55,68,61,55,100,82,48,30.06,30.01,29.95,10,6,0,14,4,21,0.00,3,Fog,205
2013-1-17,78,62,44,63,57,41,100,82,51,30.01,29.91,29.73,10,6,0,16,5,29,0.21,2,Fog-Rain,199
2013-1-18,51,42,32,43,34,28,100,77,41,30.52,30.39,30.08,10,7,5,13,6,21,0.00,2,,360
2013-1-19,60,45,30,45,37,30,100,81,42,30.51,30.37,30.23,7,6,4,5,0,,0.00,2,,81
2013-1-20,66,50,35,46,37,32,100,75,28,30.22,30.12,30.03,10,6,3,10,2,16,0.00,0,,251
2013-1-21,64,48,32,43,35,32,100,65,32,30.09,30.02,29.93,10,7,4,12,2,18,0.00,0,,217
2013-1-22,50,40,30,32,26,18,100,61,30,30.27,30.17,30.01,10,7,5,9,1,,0.00,0,,319
2013-1-23,46,37,28,32,21,10,100,60,27,30.40,30.29,30.16,10,9,5,7,2,,0.00,0,,318
2013-1-24,57,44,28,41,28,12,87,59,38,30.53,30.24,30.04,10,8,5,20,8,25,0.00,1,,351
2013-1-25,37,30,24,27,19,9,75,60,40,30.52,30.34,30.16,10,9,5,9,4,,0.00,5,Rain,32
2013-1-26,51,42,32,34,31,27,100,72,50,30.37,30.22,30.13,10,8,5,12,2,20,0.00,3,,20
2013-1-27,48,38,28,32,30,28,100,80,46,30.56,30.49,30.38,7,6,3,12,3,17,0.00,0,,35
2013-1-28,60,46,32,55,40,30,100,84,63,30.51,30.39,30.29,10,6,0,7,2,,0.00,5,Fog,41
2013-1-29,77,57,37,64,52,37,100,87,53,30.29,30.21,30.14,7,5,0,10,2,,0.00,3,Fog,199
2013-1-30,73,66,59,66,63,59,100,85,69,30.13,29.90,29.59,7,6,0,30,9,40,0.00,5,Fog-Rain,182
2013-1-31,68,52,37,68,35,23,100,61,30,30.13,29.92,29.64,10,7,3,21,11,38,0.06,2,Rain,247